createdAt,value
2022-08-26T00:00:02.978Z,6.18
2022-08-26T00:02:44.240Z,6.65
2022-08-26T00:05:13.037Z,5.93
2022-08-26T00:07:41.018Z,6.07
2022-08-26T00:10:12.178Z,6.15
2022-08-26T00:12:40.596Z,4.35
2022-08-26T00:15:11.038Z,4.90
2022-08-26T00:17:40.237Z,5.00
2022-08-26T00:20:12.046Z,6.22
2022-08-26T00:22:41.471Z,5.47
2022-08-26T00:25:09.246Z,6.03
2022-08-26T00:27:37.574Z,5.75
2022-08-26T00:30:09.984Z,6.10
2022-08-26T00:32:37.776Z,6.60
2022-08-26T00:35:08.642Z,5.95
2022-08-26T00:37:36.730Z,5.07
2022-08-26T00:40:07.077Z,4.10
2022-08-26T00:42:39.238Z,5.50
2022-08-26T00:45:17.655Z,4.85
2022-08-26T00:47:50.043Z,5.57
2022-08-26T00:50:49.281Z,5.75
2022-08-26T00:53:24.031Z,6.45
2022-08-26T00:55:59.008Z,6.23
2022-08-26T00:58:28.100Z,6.17
2022-08-26T01:00:57.659Z,5.43
2022-08-26T01:03:27.959Z,5.45
2022-08-26T01:05:57.222Z,5.38
2022-08-26T01:08:26.163Z,5.55
2022-08-26T01:10:55.882Z,5.43
2022-08-26T01:13:22.801Z,5.53
2022-08-26T01:15:55.806Z,5.70
2022-08-26T01:18:23.026Z,6.00
2022-08-26T01:21:05.579Z,6.90
2022-08-26T01:23:36.421Z,6.10
2022-08-26T01:26:07.682Z,4.90
2022-08-26T01:28:50.667Z,5.13
2022-08-26T01:31:21.055Z,6.20
2022-08-26T01:34:02.064Z,5.40
2022-08-26T01:36:29.670Z,4.68
2022-08-26T01:38:57.640Z,4.97
2022-08-26T01:41:27.183Z,5.35
2022-08-26T01:43:56.596Z,5.57
2022-08-26T01:46:28.267Z,5.32
2022-08-26T01:48:57.479Z,5.82
2022-08-26T01:51:27.871Z,5.78
2022-08-26T01:53:57.867Z,5.68
2022-08-26T01:56:33.244Z,4.97
2022-08-26T01:59:09.697Z,5.10
2022-08-26T02:01:39.277Z,5.53
2022-08-26T02:04:20.859Z,6.32
2022-08-26T02:06:50.039Z,5.18
2022-08-26T02:09:20.093Z,6.10
2022-08-26T02:11:48.743Z,6.25
2022-08-26T02:14:23.042Z,6.20
2022-08-26T02:16:56.715Z,6.22
2022-08-26T02:19:30.498Z,6.30
2022-08-26T02:22:03.020Z,5.15
2022-08-26T02:24:59.042Z,6.40
2022-08-26T02:27:32.903Z,5.82
2022-08-26T02:30:19.920Z,5.80
2022-08-26T02:32:49.623Z,6.40
2022-08-26T02:35:23.213Z,6.15
2022-08-26T02:37:53.190Z,6.15
2022-08-26T02:40:27.952Z,6.47
2022-08-26T02:43:01.964Z,6.30
2022-08-26T02:45:28.998Z,6.65
2022-08-26T02:47:58.055Z,5.53
2022-08-26T02:50:27.135Z,5.63
2022-08-26T02:52:53.734Z,5.72
2022-08-26T02:55:20.842Z,6.18
2022-08-26T02:57:52.765Z,6.25
2022-08-26T03:00:19.656Z,5.93
2022-08-26T03:02:48.522Z,6.03
2022-08-26T03:05:17.883Z,6.18
2022-08-26T03:07:47.240Z,5.82
2022-08-26T03:10:16.315Z,5.93
2022-08-26T03:12:47.443Z,5.78
2022-08-26T03:15:18.386Z,5.80
2022-08-26T03:17:47.165Z,5.70
2022-08-26T03:20:15.583Z,5.95
2022-08-26T03:22:44.841Z,6.38
2022-08-26T03:25:13.939Z,5.82
2022-08-26T03:27:41.669Z,5.78
2022-08-26T03:30:29.861Z,6.50
2022-08-26T03:32:57.632Z,5.57
2022-08-26T03:35:25.808Z,5.32
2022-08-26T03:37:54.032Z,6.03
2022-08-26T03:40:21.513Z,5.65
2022-08-26T03:42:49.426Z,6.13
2022-08-26T03:45:18.115Z,6.10
2022-08-26T03:47:45.999Z,6.05
2022-08-26T03:50:16.123Z,6.43
2022-08-26T03:52:44.203Z,6.38
2022-08-26T03:55:11.835Z,5.90
2022-08-26T03:57:39.290Z,6.07
2022-08-26T04:00:11.725Z,5.43
2022-08-26T04:02:46.051Z,6.05
2022-08-26T04:05:17.865Z,6.05
2022-08-26T04:07:47.779Z,6.00
2022-08-26T04:10:20.397Z,5.28
2022-08-26T04:12:48.350Z,5.38
2022-08-26T04:15:17.872Z,5.88
2022-08-26T04:17:48.289Z,5.93
2022-08-26T04:20:18.223Z,4.65
2022-08-26T04:22:46.144Z,5.07
2022-08-26T04:25:13.511Z,5.63
2022-08-26T04:27:42.131Z,5.40
2022-08-26T04:30:11.275Z,6.18
2022-08-26T04:32:42.821Z,5.20
2022-08-26T04:35:09.921Z,6.07
2022-08-26T04:37:39.745Z,5.93
2022-08-26T04:40:10.951Z,5.43
2022-08-26T04:42:39.648Z,5.00
2022-08-26T04:45:10.230Z,4.15
2022-08-26T04:47:38.352Z,4.45
2022-08-26T04:50:06.942Z,4.90
2022-08-26T04:52:36.551Z,4.55
2022-08-26T04:55:04.840Z,4.88
2022-08-26T04:57:33.655Z,6.70
2022-08-26T05:00:01.293Z,6.07
2022-08-26T05:02:28.871Z,6.22
2022-08-26T05:04:56.270Z,6.15
2022-08-26T05:07:24.312Z,6.38
2022-08-26T05:09:52.689Z,6.18
2022-08-26T05:12:19.694Z,5.93
2022-08-26T05:14:46.360Z,5.40
2022-08-26T05:17:15.089Z,5.57
2022-08-26T05:19:42.905Z,5.32
2022-08-26T05:22:09.959Z,5.78
2022-08-26T05:24:40.243Z,6.15
2022-08-26T05:27:11.439Z,6.13
2022-08-26T05:29:40.538Z,5.60
2022-08-26T05:32:08.235Z,6.03
2022-08-26T05:34:38.583Z,6.30
2022-08-26T05:37:05.987Z,6.07
2022-08-26T05:39:33.577Z,6.28
2022-08-26T05:42:01.221Z,6.28
2022-08-26T05:44:30.269Z,7.22
2022-08-26T05:47:17.218Z,6.80
2022-08-26T05:49:51.323Z,6.65
2022-08-26T05:52:19.095Z,6.28
2022-08-26T05:54:47.664Z,6.20
2022-08-26T05:57:15.611Z,7.18
2022-08-26T05:59:43.864Z,6.78
2022-08-26T06:02:13.410Z,7.28
2022-08-26T06:04:43.358Z,6.65
2022-08-26T06:07:11.660Z,6.55
2022-08-26T06:09:41.542Z,7.07
2022-08-26T06:12:11.125Z,6.53
2022-08-26T06:14:39.826Z,5.78
2022-08-26T06:17:09.658Z,6.28
2022-08-26T06:19:36.867Z,6.50
2022-08-26T06:22:28.893Z,5.72
2022-08-26T06:25:26.094Z,6.20
2022-08-26T06:27:54.951Z,5.40
2022-08-26T06:30:25.216Z,6.13
2022-08-26T06:32:53.843Z,5.97
2022-08-26T06:35:23.794Z,6.25
2022-08-26T06:37:51.870Z,7.30
2022-08-26T06:40:20.919Z,6.43
2022-08-26T06:42:49.259Z,6.43
2022-08-26T06:45:19.596Z,6.55
2022-08-26T06:47:47.079Z,7.57
2022-08-26T06:50:17.857Z,6.75
2022-08-26T06:52:46.340Z,7.28
2022-08-26T06:55:13.343Z,7.05
2022-08-26T06:57:41.056Z,7.22
2022-08-26T07:00:11.640Z,6.78
2022-08-26T07:02:46.883Z,7.30
2022-08-26T07:05:14.319Z,7.30
2022-08-26T07:07:41.696Z,6.80
2022-08-26T07:10:10.218Z,6.80
2022-08-26T07:12:36.993Z,8.57
2022-08-26T07:15:04.168Z,7.60
2022-08-26T07:17:31.245Z,10.98
2022-08-26T07:20:03.257Z,9.00
2022-08-26T07:22:31.664Z,8.27
2022-08-26T07:24:59.277Z,8.73
2022-08-26T07:27:27.523Z,8.98
2022-08-26T07:29:58.135Z,10.73
2022-08-26T07:32:25.499Z,9.52
2022-08-26T07:34:52.586Z,10.15
2022-08-26T07:37:19.597Z,10.05
2022-08-26T07:39:47.297Z,10.50
2022-08-26T07:42:16.471Z,11.77
2022-08-26T07:44:47.079Z,9.95
2022-08-26T07:47:25.300Z,11.05
2022-08-26T07:49:55.367Z,11.02
2022-08-26T07:52:26.894Z,11.70
2022-08-26T07:54:58.064Z,10.10
2022-08-26T07:57:28.107Z,10.40
2022-08-26T07:59:56.315Z,10.75
2022-08-26T08:02:26.200Z,9.13
2022-08-26T08:04:55.027Z,9.00
2022-08-26T08:07:38.777Z,10.07
2022-08-26T08:10:20.853Z,10.23
2022-08-26T08:12:51.044Z,9.23
2022-08-26T08:15:24.973Z,9.35
2022-08-26T08:17:54.044Z,9.88
2022-08-26T08:20:23.665Z,9.63
2022-08-26T08:22:52.947Z,9.23
2022-08-26T08:25:24.900Z,9.35
2022-08-26T08:27:52.936Z,7.32
2022-08-26T08:30:22.780Z,8.60
2022-08-26T08:32:52.950Z,9.07
2022-08-26T08:35:22.993Z,8.60
2022-08-26T08:37:54.734Z,8.68
2022-08-26T08:40:25.799Z,8.15
2022-08-26T08:42:58.365Z,8.27
2022-08-26T08:45:37.220Z,7.88
2022-08-26T08:48:09.582Z,7.78
2022-08-26T08:50:43.555Z,8.10
2022-08-26T08:53:20.417Z,9.07
2022-08-26T08:56:26.449Z,6.85
2022-08-26T08:59:20.325Z,7.47
2022-08-26T09:02:06.501Z,7.20
2022-08-26T09:04:51.548Z,6.55
2022-08-26T09:07:41.059Z,7.55
2022-08-26T09:10:35.176Z,5.95
2022-08-26T09:13:06.558Z,5.75
2022-08-26T09:15:45.858Z,5.60
2022-08-26T09:18:31.451Z,6.28
2022-08-26T09:21:04.809Z,5.95
2022-08-26T09:23:33.055Z,5.55
2022-08-26T09:26:14.945Z,6.15
2022-08-26T09:28:47.622Z,6.78
2022-08-26T09:31:32.469Z,6.38
2022-08-26T09:34:26.502Z,5.03
2022-08-26T09:36:59.640Z,6.30
2022-08-26T09:39:37.531Z,5.18
2022-08-26T09:42:11.385Z,4.70
2022-08-26T09:44:59.582Z,4.63
2022-08-26T09:47:30.289Z,4.32
2022-08-26T09:50:20.119Z,4.53
2022-08-26T09:53:09.501Z,4.80
2022-08-26T09:55:44.800Z,5.63
2022-08-26T09:58:34.123Z,5.38
2022-08-26T10:01:02.944Z,4.80
2022-08-26T10:03:34.451Z,5.28
2022-08-26T10:06:07.439Z,5.32
2022-08-26T10:08:41.999Z,5.80
2022-08-26T10:11:47.633Z,4.95
2022-08-26T10:14:39.788Z,4.60
2022-08-26T10:17:27.370Z,4.50
2022-08-26T10:20:06.420Z,5.15
2022-08-26T10:23:15.350Z,4.18
2022-08-26T10:25:51.808Z,3.88
2022-08-26T10:28:38.147Z,4.13
2022-08-26T10:31:27.473Z,4.13
2022-08-26T10:34:00.023Z,4.43
2022-08-26T10:37:13.773Z,3.47
2022-08-26T10:40:01.857Z,4.30
2022-08-26T10:42:37.593Z,4.93
2022-08-26T10:45:12.034Z,4.43
2022-08-26T10:47:57.350Z,3.90
2022-08-26T10:50:28.296Z,3.95
2022-08-26T10:53:02.504Z,4.20
2022-08-26T10:55:40.003Z,4.05
2022-08-26T10:58:11.646Z,3.22
2022-08-26T11:01:10.399Z,3.75
2022-08-26T11:03:47.436Z,3.38
2022-08-26T11:06:18.307Z,3.67
2022-08-26T11:08:50.250Z,3.03
2022-08-26T11:11:41.613Z,3.30
2022-08-26T11:14:09.589Z,3.50
2022-08-26T11:16:57.448Z,3.72
2022-08-26T11:19:45.615Z,3.00
2022-08-26T11:22:25.470Z,3.40
2022-08-26T11:24:52.409Z,3.75
2022-08-26T11:27:23.225Z,3.00
2022-08-26T11:30:06.726Z,3.60
2022-08-26T11:32:34.272Z,3.25
2022-08-26T11:35:04.948Z,3.72
2022-08-26T11:37:37.544Z,3.25
2022-08-26T11:40:14.931Z,3.30
2022-08-26T11:42:47.004Z,3.87
2022-08-26T11:45:16.290Z,4.03
2022-08-26T11:47:44.702Z,3.13
2022-08-26T11:50:21.483Z,3.30
2022-08-26T11:53:06.276Z,3.10
2022-08-26T11:55:42.726Z,3.03
2022-08-26T11:58:12.164Z,3.17
2022-08-26T12:01:09.788Z,2.80
2022-08-26T12:03:42.039Z,3.05
2022-08-26T12:06:36.365Z,2.55
2022-08-26T12:09:15.155Z,3.20
2022-08-26T12:11:44.938Z,3.22
2022-08-26T12:14:19.432Z,3.25
2022-08-26T12:16:48.903Z,3.10
2022-08-26T12:19:27.501Z,3.40
2022-08-26T12:22:19.497Z,3.42
2022-08-26T12:24:53.286Z,3.17
2022-08-26T12:27:20.769Z,3.05
2022-08-26T12:30:02.680Z,3.03
2022-08-26T12:32:32.736Z,3.13
2022-08-26T12:37:34.655Z,3.33
